Clipper 3 — ZMT3984 — position and weather

sailwx.info

Track history (hours):
 
Tides and Currents Weather Stations Pressure Air Temp Water Temp Dewpoint Dewpoint Depression Visibility Wind Speed Wind Dir Waves Ship Positions

Clipper 3

Last reported at 2015-May-27 06:33 UTC. Time now 2015-May-27 17:58 UTC.
Position S 36°51' E 174°46'.

Length 14 m; draft 1 m.

Type: High speed craft. MMSI: 512000741.

Date/timePositionNaut miles runAvg speedWind from/ knotsBaromVisibWave heightAir tempDewpointWater temp
2015-May-27 06:33S 36°51' E 174°46'6 5.6
2015-May-27 05:25S 36°51' E 174°54'0 0.1
2015-May-27 04:07S 36°51' E 174°54'4 6.9
2015-May-27 03:33S 36°50' E 174°49'2 0.3
2015-May-26 21:34S 36°50' E 174°52'2 1.4
2015-May-26 20:16S 36°51' E 174°54'6 0.5
2015-May-26 06:33S 36°51' E 174°46'6 5.1
2015-May-26 05:25S 36°51' E 174°53'0 0.1
2015-May-26 04:06S 36°51' E 174°53'3 5.9
2015-May-26 03:32S 36°50' E 174°49'2 0.3
2015-May-25 21:33S 36°50' E 174°52'2 1.3
2015-May-25 20:16S 36°51' E 174°54'6 0.5
2015-May-25 06:29S 36°50' E 174°46'3 1.0
2015-May-25 03:31S 36°50' E 174°50'2 0.4
2015-May-24 21:34S 36°50' E 174°53'1 0.8
2015-May-24 20:15S 36°51' E 174°54'1 0.8
2015-May-24 19:33S 36°51' E 174°55'3 0.2
2015-May-24 03:21S 36°52' E 174°58'3 3.1
2015-May-24 02:22S 36°52' E 175°02'13 0.3
2015-May-22 06:33S 36°51' E 174°46'6 5.5
2015-May-22 05:26S 36°51' E 174°54'0 0.1
2015-May-22 04:05S 36°51' E 174°54'3 6.3
2015-May-22 03:33S 36°50' E 174°49'3 0.4
2015-May-21 21:34S 36°50' E 174°53'1 0.6
2015-May-21 20:16S 36°51' E 174°54'6 0.4
2015-May-21 06:33S 36°51' E 174°46'6 5.6
2015-May-21 05:26S 36°51' E 174°54'0 0.3
2015-May-21 04:05S 36°51' E 174°53'3 6.2
2015-May-21 03:34S 36°50' E 174°49'2 0.4
2015-May-20 21:33S 36°50' E 174°52'1 0.9
2015-May-20 20:16S 36°51' E 174°54'6 0.5
2015-May-20 06:33S 36°51' E 174°46'7 5.8
2015-May-20 05:26S 36°51' E 174°54'0 0.2
2015-May-20 04:07S 36°51' E 174°54'3 5.5
2015-May-20 03:33S 36°50' E 174°50'2 0.3
2015-May-19 21:33S 36°50' E 174°52'1 0.9
2015-May-19 20:15S 36°51' E 174°53'6 0.4
2015-May-19 06:33S 36°51' E 174°46'6 5.7
2015-May-19 05:27S 36°51' E 174°54'0 0.3
2015-May-19 04:05S 36°51' E 174°53'3 6.3
2015-May-19 03:33S 36°50' E 174°49'1 0.2
2015-May-18 21:33S 36°50' E 174°51'2 1.5
2015-May-18 20:16S 36°51' E 174°53'6 0.4
2015-May-18 06:33S 36°51' E 174°46'6 5.7
2015-May-18 05:26S 36°51' E 174°54'0 0.4
2015-May-18 04:05S 36°51' E 174°53'3 6.4
2015-May-18 03:33S 36°50' E 174°49'3 0.5
2015-May-17 21:34S 36°50' E 174°53'1 0.9
2015-May-17 20:16S 36°51' E 174°54'  
Track history (hours):
 
Tides and Currents Weather Stations Pressure Air Temp Water Temp Dewpoint Dewpoint Depression Visibility Wind Speed Wind Dir Waves Ship Positions

Clipper 3

Last reported at 2015-May-27 06:33 UTC. Time now 2015-May-27 17:58 UTC.
Position S 36°51' E 174°46'.

Length 14 m; draft 1 m.

Type: High speed craft. MMSI: 512000741.

Date/timePositionNaut miles runAvg speedWind from/ knotsBaromVisibWave heightAir tempDewpointWater temp
2015-May-27 06:33S 36°51' E 174°46'6 5.6
2015-May-27 05:25S 36°51' E 174°54'0 0.1
2015-May-27 04:07S 36°51' E 174°54'4 6.9
2015-May-27 03:33S 36°50' E 174°49'2 0.3
2015-May-26 21:34S 36°50' E 174°52'2 1.4
2015-May-26 20:16S 36°51' E 174°54'6 0.5
2015-May-26 06:33S 36°51' E 174°46'6 5.1
2015-May-26 05:25S 36°51' E 174°53'0 0.1
2015-May-26 04:06S 36°51' E 174°53'3 5.9
2015-May-26 03:32S 36°50' E 174°49'2 0.3
2015-May-25 21:33S 36°50' E 174°52'2 1.3
2015-May-25 20:16S 36°51' E 174°54'6 0.5
2015-May-25 06:29S 36°50' E 174°46'3 1.0
2015-May-25 03:31S 36°50' E 174°50'2 0.4
2015-May-24 21:34S 36°50' E 174°53'1 0.8
2015-May-24 20:15S 36°51' E 174°54'1 0.8
2015-May-24 19:33S 36°51' E 174°55'3 0.2
2015-May-24 03:21S 36°52' E 174°58'3 3.1
2015-May-24 02:22S 36°52' E 175°02'13 0.3
2015-May-22 06:33S 36°51' E 174°46'6 5.5
2015-May-22 05:26S 36°51' E 174°54'0 0.1
2015-May-22 04:05S 36°51' E 174°54'3 6.3
2015-May-22 03:33S 36°50' E 174°49'3 0.4
2015-May-21 21:34S 36°50' E 174°53'1 0.6
2015-May-21 20:16S 36°51' E 174°54'6 0.4
2015-May-21 06:33S 36°51' E 174°46'6 5.6
2015-May-21 05:26S 36°51' E 174°54'0 0.3
2015-May-21 04:05S 36°51' E 174°53'3 6.2
2015-May-21 03:34S 36°50' E 174°49'2 0.4
2015-May-20 21:33S 36°50' E 174°52'1 0.9
2015-May-20 20:16S 36°51' E 174°54'6 0.5
2015-May-20 06:33S 36°51' E 174°46'7 5.8
2015-May-20 05:26S 36°51' E 174°54'0 0.2
2015-May-20 04:07S 36°51' E 174°54'3 5.5
2015-May-20 03:33S 36°50' E 174°50'2 0.3
2015-May-19 21:33S 36°50' E 174°52'1 0.9
2015-May-19 20:15S 36°51' E 174°53'6 0.4
2015-May-19 06:33S 36°51' E 174°46'6 5.7
2015-May-19 05:27S 36°51' E 174°54'0 0.3
2015-May-19 04:05S 36°51' E 174°53'3 6.3
2015-May-19 03:33S 36°50' E 174°49'1 0.2
2015-May-18 21:33S 36°50' E 174°51'2 1.5
2015-May-18 20:16S 36°51' E 174°53'6 0.4
2015-May-18 06:33S 36°51' E 174°46'6 5.7
2015-May-18 05:26S 36°51' E 174°54'0 0.4
2015-May-18 04:05S 36°51' E 174°53'3 6.4
2015-May-18 03:33S 36°50' E 174°49'3 0.5
2015-May-17 21:34S 36°50' E 174°53'1 0.9
2015-May-17 20:16S 36°51' E 174°54'  

Dump ship's entire track history